sensor_id;sensor_type;location;lat;lon;timestamp;P1;durP1;ratioP1;P2;durP2;ratioP2
15812;SDS011;8007;51.404;6.304;2022-11-22T00:00:08;14.03;;;4.70;;
15812;SDS011;8007;51.404;6.304;2022-11-22T00:02:11;10.47;;;3.90;;
15812;SDS011;8007;51.404;6.304;2022-11-22T00:04:14;12.73;;;4.43;;
15812;SDS011;8007;51.404;6.304;2022-11-22T00:06:16;12.73;;;4.73;;
15812;SDS011;8007;51.404;6.304;2022-11-22T00:08:18;8.90;;;4.27;;
15812;SDS011;8007;51.404;6.304;2022-11-22T00:10:21;12.53;;;4.50;;
15812;SDS011;8007;51.404;6.304;2022-11-22T00:12:23;9.47;;;3.97;;
15812;SDS011;8007;51.404;6.304;2022-11-22T00:14:25;8.43;;;3.63;;
15812;SDS011;8007;51.404;6.304;2022-11-22T00:16:29;12.43;;;4.00;;
15812;SDS011;8007;51.404;6.304;2022-11-22T00:18:33;13.07;;;4.00;;
15812;SDS011;8007;51.404;6.304;2022-11-22T00:20:36;7.83;;;3.40;;
15812;SDS011;8007;51.404;6.304;2022-11-22T00:22:38;8.13;;;3.77;;
15812;SDS011;8007;51.404;6.304;2022-11-22T00:24:40;10.53;;;3.90;;
15812;SDS011;8007;51.404;6.304;2022-11-22T00:26:45;9.50;;;3.47;;
15812;SDS011;8007;51.404;6.304;2022-11-22T00:28:47;9.67;;;3.80;;
15812;SDS011;8007;51.404;6.304;2022-11-22T00:30:49;7.77;;;2.80;;
15812;SDS011;8007;51.404;6.304;2022-11-22T00:32:53;8.87;;;3.27;;
15812;SDS011;8007;51.404;6.304;2022-11-22T00:34:55;5.80;;;2.83;;
15812;SDS011;8007;51.404;6.304;2022-11-22T00:36:58;4.40;;;2.60;;
15812;SDS011;8007;51.404;6.304;2022-11-22T00:39:00;12.10;;;3.30;;
15812;SDS011;8007;51.404;6.304;2022-11-22T00:41:03;8.47;;;2.90;;
15812;SDS011;8007;51.404;6.304;2022-11-22T00:43:05;6.60;;;2.60;;
15812;SDS011;8007;51.404;6.304;2022-11-22T00:45:07;6.93;;;2.57;;
15812;SDS011;8007;51.404;6.304;2022-11-22T00:47:10;6.63;;;2.60;;
15812;SDS011;8007;51.404;6.304;2022-11-22T00:49:14;3.53;;;2.40;;
15812;SDS011;8007;51.404;6.304;2022-11-22T00:51:16;8.00;;;2.70;;
15812;SDS011;8007;51.404;6.304;2022-11-22T00:53:19;7.00;;;2.53;;
15812;SDS011;8007;51.404;6.304;2022-11-22T00:55:21;4.17;;;2.33;;
15812;SDS011;8007;51.404;6.304;2022-11-22T00:57:23;7.13;;;2.60;;
15812;SDS011;8007;51.404;6.304;2022-11-22T00:59:26;6.90;;;2.70;;
15812;SDS011;8007;51.404;6.304;2022-11-22T01:01:28;7.80;;;2.53;;
15812;SDS011;8007;51.404;6.304;2022-11-22T01:03:30;5.67;;;3.33;;
15812;SDS011;8007;51.404;6.304;2022-11-22T01:05:34;5.60;;;2.53;;
15812;SDS011;8007;51.404;6.304;2022-11-22T01:07:36;6.60;;;2.80;;
15812;SDS011;8007;51.404;6.304;2022-11-22T01:09:39;5.57;;;2.97;;
15812;SDS011;8007;51.404;6.304;2022-11-22T01:11:41;7.77;;;2.50;;
15812;SDS011;8007;51.404;6.304;2022-11-22T01:13:43;6.07;;;2.37;;
15812;SDS011;8007;51.404;6.304;2022-11-22T01:15:46;5.80;;;2.70;;
15812;SDS011;8007;51.404;6.304;2022-11-22T01:17:48;5.83;;;2.47;;
15812;SDS011;8007;51.404;6.304;2022-11-22T01:19:50;3.40;;;2.45;;
15812;SDS011;8007;51.404;6.304;2022-11-22T01:21:54;4.30;;;2.60;;
15812;SDS011;8007;51.404;6.304;2022-11-22T01:23:57;7.60;;;2.80;;
15812;SDS011;8007;51.404;6.304;2022-11-22T01:25:59;4.37;;;2.47;;
15812;SDS011;8007;51.404;6.304;2022-11-22T01:28:02;6.63;;;2.83;;
15812;SDS011;8007;51.404;6.304;2022-11-22T01:30:05;11.20;;;3.27;;
15812;SDS011;8007;51.404;6.304;2022-11-22T01:32:08;6.03;;;2.73;;
15812;SDS011;8007;51.404;6.304;2022-11-22T01:34:10;6.63;;;2.73;;
15812;SDS011;8007;51.404;6.304;2022-11-22T01:36:12;7.77;;;2.80;;
15812;SDS011;8007;51.404;6.304;2022-11-22T01:38:16;5.00;;;2.63;;
15812;SDS011;8007;51.404;6.304;2022-11-22T01:40:18;8.83;;;3.17;;
15812;SDS011;8007;51.404;6.304;2022-11-22T01:42:21;9.67;;;2.97;;
15812;SDS011;8007;51.404;6.304;2022-11-22T01:44:24;6.43;;;3.03;;
15812;SDS011;8007;51.404;6.304;2022-11-22T01:46:29;9.07;;;2.80;;
15812;SDS011;8007;51.404;6.304;2022-11-22T01:48:37;5.30;;;2.70;;
15812;SDS011;8007;51.404;6.304;2022-11-22T01:50:47;5.77;;;2.70;;
15812;SDS011;8007;51.404;6.304;2022-11-22T01:52:50;6.60;;;2.80;;
15812;SDS011;8007;51.404;6.304;2022-11-22T01:54:56;6.23;;;3.20;;
15812;SDS011;8007;51.404;6.304;2022-11-22T01:57:02;9.13;;;2.87;;
15812;SDS011;8007;51.404;6.304;2022-11-22T01:59:07;7.63;;;2.60;;
15812;SDS011;8007;51.404;6.304;2022-11-22T02:01:11;11.37;;;2.57;;
15812;SDS011;8007;51.404;6.304;2022-11-22T02:03:14;10.57;;;2.93;;
15812;SDS011;8007;51.404;6.304;2022-11-22T02:05:17;9.70;;;3.23;;
15812;SDS011;8007;51.404;6.304;2022-11-22T02:07:22;7.07;;;2.67;;
15812;SDS011;8007;51.404;6.304;2022-11-22T02:09:27;8.33;;;3.20;;
15812;SDS011;8007;51.404;6.304;2022-11-22T02:11:31;7.53;;;3.20;;
15812;SDS011;8007;51.404;6.304;2022-11-22T02:13:36;16.03;;;3.20;;
15812;SDS011;8007;51.404;6.304;2022-11-22T02:15:41;10.77;;;3.77;;
15812;SDS011;8007;51.404;6.304;2022-11-22T02:17:43;11.00;;;3.20;;
15812;SDS011;8007;51.404;6.304;2022-11-22T02:19:46;8.80;;;3.00;;
15812;SDS011;8007;51.404;6.304;2022-11-22T02:22:03;8.50;;;2.93;;
15812;SDS011;8007;51.404;6.304;2022-11-22T02:24:11;12.50;;;3.33;;
15812;SDS011;8007;51.404;6.304;2022-11-22T02:26:18;12.13;;;3.03;;
15812;SDS011;8007;51.404;6.304;2022-11-22T02:28:21;11.50;;;3.40;;
15812;SDS011;8007;51.404;6.304;2022-11-22T02:30:23;15.13;;;3.57;;
15812;SDS011;8007;51.404;6.304;2022-11-22T02:32:25;7.17;;;2.70;;
15812;SDS011;8007;51.404;6.304;2022-11-22T02:34:27;10.30;;;3.47;;
15812;SDS011;8007;51.404;6.304;2022-11-22T02:36:30;8.53;;;3.00;;
15812;SDS011;8007;51.404;6.304;2022-11-22T02:38:35;12.80;;;3.10;;
15812;SDS011;8007;51.404;6.304;2022-11-22T02:40:39;12.73;;;3.57;;
15812;SDS011;8007;51.404;6.304;2022-11-22T02:42:46;16.13;;;3.73;;
15812;SDS011;8007;51.404;6.304;2022-11-22T02:44:50;11.67;;;3.13;;
15812;SDS011;8007;51.404;6.304;2022-11-22T02:46:53;17.60;;;3.80;;
15812;SDS011;8007;51.404;6.304;2022-11-22T02:48:56;12.00;;;3.30;;
15812;SDS011;8007;51.404;6.304;2022-11-22T02:50:58;9.13;;;3.40;;
15812;SDS011;8007;51.404;6.304;2022-11-22T02:53:01;14.47;;;3.53;;
15812;SDS011;8007;51.404;6.304;2022-11-22T02:55:04;10.23;;;3.00;;
15812;SDS011;8007;51.404;6.304;2022-11-22T02:57:06;9.10;;;3.03;;
15812;SDS011;8007;51.404;6.304;2022-11-22T02:59:10;15.83;;;4.20;;
15812;SDS011;8007;51.404;6.304;2022-11-22T03:01:12;9.70;;;3.53;;
15812;SDS011;8007;51.404;6.304;2022-11-22T03:03:15;15.27;;;2.90;;
15812;SDS011;8007;51.404;6.304;2022-11-22T03:05:17;16.97;;;2.77;;
15812;SDS011;8007;51.404;6.304;2022-11-22T03:07:19;7.57;;;2.50;;
15812;SDS011;8007;51.404;6.304;2022-11-22T03:09:22;7.23;;;3.33;;
15812;SDS011;8007;51.404;6.304;2022-11-22T03:11:25;13.47;;;3.60;;
15812;SDS011;8007;51.404;6.304;2022-11-22T03:13:27;7.83;;;2.90;;
15812;SDS011;8007;51.404;6.304;2022-11-22T03:15:31;17.40;;;4.03;;
15812;SDS011;8007;51.404;6.304;2022-11-22T03:17:33;12.43;;;3.67;;
15812;SDS011;8007;51.404;6.304;2022-11-22T03:19:35;14.87;;;3.20;;
15812;SDS011;8007;51.404;6.304;2022-11-22T03:21:38;14.00;;;4.07;;
15812;SDS011;8007;51.404;6.304;2022-11-22T03:23:41;18.07;;;3.87;;
15812;SDS011;8007;51.404;6.304;2022-11-22T03:25:43;14.80;;;3.50;;
15812;SDS011;8007;51.404;6.304;2022-11-22T03:27:46;14.23;;;3.10;;
15812;SDS011;8007;51.404;6.304;2022-11-22T03:29:48;14.17;;;3.00;;
15812;SDS011;8007;51.404;6.304;2022-11-22T03:31:52;13.03;;;4.77;;
15812;SDS011;8007;51.404;6.304;2022-11-22T03:33:54;14.17;;;3.30;;
15812;SDS011;8007;51.404;6.304;2022-11-22T03:35:57;11.13;;;3.23;;
15812;SDS011;8007;51.404;6.304;2022-11-22T03:37:59;12.53;;;3.07;;
15812;SDS011;8007;51.404;6.304;2022-11-22T03:40:02;16.80;;;3.30;;
15812;SDS011;8007;51.404;6.304;2022-11-22T03:42:05;14.90;;;4.37;;
15812;SDS011;8007;51.404;6.304;2022-11-22T03:44:07;8.77;;;2.93;;
15812;SDS011;8007;51.404;6.304;2022-11-22T03:46:12;12.40;;;3.87;;
15812;SDS011;8007;51.404;6.304;2022-11-22T03:48:16;13.63;;;2.70;;
15812;SDS011;8007;51.404;6.304;2022-11-22T03:50:19;12.20;;;3.43;;
15812;SDS011;8007;51.404;6.304;2022-11-22T03:52:21;19.07;;;4.17;;
15812;SDS011;8007;51.404;6.304;2022-11-22T03:54:24;9.83;;;2.83;;
15812;SDS011;8007;51.404;6.304;2022-11-22T03:56:26;13.73;;;3.20;;
15812;SDS011;8007;51.404;6.304;2022-11-22T03:58:29;10.47;;;3.03;;
15812;SDS011;8007;51.404;6.304;2022-11-22T04:00:31;10.53;;;2.70;;
15812;SDS011;8007;51.404;6.304;2022-11-22T04:02:34;10.00;;;2.87;;
15812;SDS011;8007;51.404;6.304;2022-11-22T04:04:37;12.90;;;2.73;;
15812;SDS011;8007;51.404;6.304;2022-11-22T04:06:40;13.57;;;2.93;;
15812;SDS011;8007;51.404;6.304;2022-11-22T04:08:42;12.57;;;2.30;;
15812;SDS011;8007;51.404;6.304;2022-11-22T04:10:46;12.53;;;3.20;;
15812;SDS011;8007;51.404;6.304;2022-11-22T04:12:49;13.27;;;2.73;;
15812;SDS011;8007;51.404;6.304;2022-11-22T04:14:51;10.60;;;2.47;;
15812;SDS011;8007;51.404;6.304;2022-11-22T04:17:10;10.33;;;2.37;;
15812;SDS011;8007;51.404;6.304;2022-11-22T04:19:13;13.47;;;2.67;;
15812;SDS011;8007;51.404;6.304;2022-11-22T04:21:16;13.83;;;2.90;;
15812;SDS011;8007;51.404;6.304;2022-11-22T04:23:32;13.17;;;3.17;;
15812;SDS011;8007;51.404;6.304;2022-11-22T04:25:36;10.23;;;2.80;;
15812;SDS011;8007;51.404;6.304;2022-11-22T04:27:39;14.20;;;2.77;;
15812;SDS011;8007;51.404;6.304;2022-11-22T04:29:41;14.90;;;2.67;;
15812;SDS011;8007;51.404;6.304;2022-11-22T04:31:44;16.70;;;3.20;;
15812;SDS011;8007;51.404;6.304;2022-11-22T04:34:04;10.90;;;3.33;;
15812;SDS011;8007;51.404;6.304;2022-11-22T04:36:06;13.37;;;2.80;;
15812;SDS011;8007;51.404;6.304;2022-11-22T04:38:10;8.20;;;2.33;;
15812;SDS011;8007;51.404;6.304;2022-11-22T04:40:13;47.60;;;5.00;;
15812;SDS011;8007;51.404;6.304;2022-11-22T04:42:16;12.47;;;2.33;;
15812;SDS011;8007;51.404;6.304;2022-11-22T04:44:36;8.83;;;2.73;;
15812;SDS011;8007;51.404;6.304;2022-11-22T04:46:41;12.80;;;2.33;;
15812;SDS011;8007;51.404;6.304;2022-11-22T04:48:43;10.20;;;2.77;;
15812;SDS011;8007;51.404;6.304;2022-11-22T04:50:46;9.03;;;2.00;;
15812;SDS011;8007;51.404;6.304;2022-11-22T04:53:06;16.67;;;2.70;;
15812;SDS011;8007;51.404;6.304;2022-11-22T04:55:09;9.10;;;2.60;;
15812;SDS011;8007;51.404;6.304;2022-11-22T04:57:12;6.70;;;2.77;;
15812;SDS011;8007;51.404;6.304;2022-11-22T04:59:14;10.07;;;2.93;;
15812;SDS011;8007;51.404;6.304;2022-11-22T05:01:16;13.30;;;2.70;;
15812;SDS011;8007;51.404;6.304;2022-11-22T05:03:19;15.77;;;3.03;;
15812;SDS011;8007;51.404;6.304;2022-11-22T05:05:21;22.43;;;3.57;;
15812;SDS011;8007;51.404;6.304;2022-11-22T05:07:23;7.47;;;2.00;;
15812;SDS011;8007;51.404;6.304;2022-11-22T05:09:26;14.23;;;3.40;;
15812;SDS011;8007;51.404;6.304;2022-11-22T05:11:29;14.33;;;2.80;;
15812;SDS011;8007;51.404;6.304;2022-11-22T05:13:32;11.37;;;3.37;;
15812;SDS011;8007;51.404;6.304;2022-11-22T05:15:36;16.23;;;2.80;;
15812;SDS011;8007;51.404;6.304;2022-11-22T05:17:38;10.03;;;2.77;;
15812;SDS011;8007;51.404;6.304;2022-11-22T05:19:41;8.67;;;1.93;;
15812;SDS011;8007;51.404;6.304;2022-11-22T05:21:43;10.33;;;3.07;;
15812;SDS011;8007;51.404;6.304;2022-11-22T05:23:45;5.33;;;2.23;;
15812;SDS011;8007;51.404;6.304;2022-11-22T05:25:55;12.13;;;2.37;;
15812;SDS011;8007;51.404;6.304;2022-11-22T05:27:59;9.80;;;2.03;;
15812;SDS011;8007;51.404;6.304;2022-11-22T05:30:01;7.03;;;2.53;;
15812;SDS011;8007;51.404;6.304;2022-11-22T05:32:04;12.80;;;3.13;;
15812;SDS011;8007;51.404;6.304;2022-11-22T05:34:07;10.70;;;2.80;;
15812;SDS011;8007;51.404;6.304;2022-11-22T05:36:09;11.23;;;2.23;;
15812;SDS011;8007;51.404;6.304;2022-11-22T05:38:12;8.93;;;2.57;;
15812;SDS011;8007;51.404;6.304;2022-11-22T05:40:14;13.10;;;3.00;;
15812;SDS011;8007;51.404;6.304;2022-11-22T05:42:17;13.17;;;2.90;;
15812;SDS011;8007;51.404;6.304;2022-11-22T05:44:21;19.97;;;3.30;;
15812;SDS011;8007;51.404;6.304;2022-11-22T05:46:24;11.47;;;2.10;;
15812;SDS011;8007;51.404;6.304;2022-11-22T05:48:27;14.40;;;3.70;;
15812;SDS011;8007;51.404;6.304;2022-11-22T05:50:29;11.60;;;2.50;;
15812;SDS011;8007;51.404;6.304;2022-11-22T05:52:32;5.73;;;2.10;;
15812;SDS011;8007;51.404;6.304;2022-11-22T05:54:34;11.83;;;2.60;;
15812;SDS011;8007;51.404;6.304;2022-11-22T05:56:36;11.70;;;2.80;;
15812;SDS011;8007;51.404;6.304;2022-11-22T05:58:39;14.30;;;2.70;;
15812;SDS011;8007;51.404;6.304;2022-11-22T06:00:42;8.87;;;3.03;;
15812;SDS011;8007;51.404;6.304;2022-11-22T06:02:45;14.87;;;3.43;;
15812;SDS011;8007;51.404;6.304;2022-11-22T06:04:47;11.33;;;3.30;;
15812;SDS011;8007;51.404;6.304;2022-11-22T06:06:50;9.73;;;2.73;;
15812;SDS011;8007;51.404;6.304;2022-11-22T06:08:52;9.97;;;3.00;;
15812;SDS011;8007;51.404;6.304;2022-11-22T06:10:54;13.40;;;3.60;;
15812;SDS011;8007;51.404;6.304;2022-11-22T06:12:58;9.97;;;2.83;;
15812;SDS011;8007;51.404;6.304;2022-11-22T06:15:00;15.23;;;3.83;;
15812;SDS011;8007;51.404;6.304;2022-11-22T06:17:04;13.43;;;3.83;;
15812;SDS011;8007;51.404;6.304;2022-11-22T06:19:06;12.37;;;4.17;;
15812;SDS011;8007;51.404;6.304;2022-11-22T06:21:10;23.87;;;5.73;;
15812;SDS011;8007;51.404;6.304;2022-11-22T06:23:13;16.20;;;5.67;;
15812;SDS011;8007;51.404;6.304;2022-11-22T06:25:15;18.80;;;5.13;;
15812;SDS011;8007;51.404;6.304;2022-11-22T06:27:18;18.80;;;4.90;;
15812;SDS011;8007;51.404;6.304;2022-11-22T06:29:20;14.37;;;4.10;;
15812;SDS011;8007;51.404;6.304;2022-11-22T06:31:23;13.27;;;3.67;;
15812;SDS011;8007;51.404;6.304;2022-11-22T06:33:28;10.43;;;3.23;;
15812;SDS011;8007;51.404;6.304;2022-11-22T06:35:30;9.87;;;2.40;;
15812;SDS011;8007;51.404;6.304;2022-11-22T06:37:32;8.03;;;2.50;;
15812;SDS011;8007;51.404;6.304;2022-11-22T06:39:35;5.73;;;2.40;;
15812;SDS011;8007;51.404;6.304;2022-11-22T06:41:37;13.07;;;3.20;;
15812;SDS011;8007;51.404;6.304;2022-11-22T06:43:40;16.20;;;3.37;;
15812;SDS011;8007;51.404;6.304;2022-11-22T06:45:43;13.80;;;2.67;;
15812;SDS011;8007;51.404;6.304;2022-11-22T06:47:45;9.73;;;2.90;;
15812;SDS011;8007;51.404;6.304;2022-11-22T06:49:49;12.60;;;3.07;;
15812;SDS011;8007;51.404;6.304;2022-11-22T06:51:51;11.60;;;2.73;;
15812;SDS011;8007;51.404;6.304;2022-11-22T06:53:53;10.83;;;3.03;;
15812;SDS011;8007;51.404;6.304;2022-11-22T06:56:00;14.00;;;3.43;;
15812;SDS011;8007;51.404;6.304;2022-11-22T06:58:02;10.33;;;3.47;;
15812;SDS011;8007;51.404;6.304;2022-11-22T07:00:05;10.13;;;4.00;;
15812;SDS011;8007;51.404;6.304;2022-11-22T07:02:09;12.57;;;3.80;;
15812;SDS011;8007;51.404;6.304;2022-11-22T07:04:12;9.77;;;3.83;;
15812;SDS011;8007;51.404;6.304;2022-11-22T07:06:16;27.93;;;9.90;;
15812;SDS011;8007;51.404;6.304;2022-11-22T07:08:19;18.60;;;8.37;;
15812;SDS011;8007;51.404;6.304;2022-11-22T07:10:21;21.30;;;5.70;;
15812;SDS011;8007;51.404;6.304;2022-11-22T07:12:23;16.20;;;4.10;;
15812;SDS011;8007;51.404;6.304;2022-11-22T07:14:26;16.30;;;3.77;;
15812;SDS011;8007;51.404;6.304;2022-11-22T07:16:29;14.07;;;3.80;;
15812;SDS011;8007;51.404;6.304;2022-11-22T07:18:31;16.33;;;4.07;;
15812;SDS011;8007;51.404;6.304;2022-11-22T07:20:34;13.60;;;4.57;;
15812;SDS011;8007;51.404;6.304;2022-11-22T07:22:37;14.97;;;4.70;;
15812;SDS011;8007;51.404;6.304;2022-11-22T07:24:40;14.10;;;4.60;;
15812;SDS011;8007;51.404;6.304;2022-11-22T07:26:42;14.83;;;4.83;;
15812;SDS011;8007;51.404;6.304;2022-11-22T07:28:44;16.13;;;4.77;;
15812;SDS011;8007;51.404;6.304;2022-11-22T07:30:47;17.63;;;4.93;;
15812;SDS011;8007;51.404;6.304;2022-11-22T07:32:49;19.73;;;8.40;;
15812;SDS011;8007;51.404;6.304;2022-11-22T07:34:52;16.03;;;6.70;;
15812;SDS011;8007;51.404;6.304;2022-11-22T07:36:54;21.17;;;5.97;;
15812;SDS011;8007;51.404;6.304;2022-11-22T07:38:58;24.63;;;8.73;;
15812;SDS011;8007;51.404;6.304;2022-11-22T07:41:00;18.20;;;4.40;;
15812;SDS011;8007;51.404;6.304;2022-11-22T07:43:02;15.33;;;4.90;;
15812;SDS011;8007;51.404;6.304;2022-11-22T07:45:05;16.53;;;5.77;;
15812;SDS011;8007;51.404;6.304;2022-11-22T07:47:08;14.80;;;3.63;;
15812;SDS011;8007;51.404;6.304;2022-11-22T07:49:11;22.80;;;9.27;;
15812;SDS011;8007;51.404;6.304;2022-11-22T07:51:13;10.13;;;2.90;;
15812;SDS011;8007;51.404;6.304;2022-11-22T07:53:15;9.60;;;3.43;;
15812;SDS011;8007;51.404;6.304;2022-11-22T07:55:19;17.50;;;4.90;;
15812;SDS011;8007;51.404;6.304;2022-11-22T07:57:21;15.73;;;5.20;;
15812;SDS011;8007;51.404;6.304;2022-11-22T07:59:24;15.70;;;4.67;;
15812;SDS011;8007;51.404;6.304;2022-11-22T08:01:26;9.17;;;3.03;;
15812;SDS011;8007;51.404;6.304;2022-11-22T08:03:28;10.10;;;2.73;;
15812;SDS011;8007;51.404;6.304;2022-11-22T08:05:31;12.93;;;4.10;;
15812;SDS011;8007;51.404;6.304;2022-11-22T08:07:33;13.97;;;3.00;;
15812;SDS011;8007;51.404;6.304;2022-11-22T08:09:36;11.70;;;2.97;;
15812;SDS011;8007;51.404;6.304;2022-11-22T08:11:39;17.17;;;3.40;;
15812;SDS011;8007;51.404;6.304;2022-11-22T08:13:42;16.10;;;3.70;;
15812;SDS011;8007;51.404;6.304;2022-11-22T08:15:44;12.37;;;4.20;;
15812;SDS011;8007;51.404;6.304;2022-11-22T08:17:47;13.17;;;3.70;;
15812;SDS011;8007;51.404;6.304;2022-11-22T08:19:49;13.50;;;3.53;;
15812;SDS011;8007;51.404;6.304;2022-11-22T08:21:52;11.43;;;2.80;;
15812;SDS011;8007;51.404;6.304;2022-11-22T08:23:56;10.27;;;2.47;;
15812;SDS011;8007;51.404;6.304;2022-11-22T08:25:59;10.07;;;3.13;;
15812;SDS011;8007;51.404;6.304;2022-11-22T08:28:02;8.70;;;2.77;;
15812;SDS011;8007;51.404;6.304;2022-11-22T08:30:05;9.67;;;2.73;;
15812;SDS011;8007;51.404;6.304;2022-11-22T08:32:08;9.87;;;3.33;;
15812;SDS011;8007;51.404;6.304;2022-11-22T08:34:10;9.83;;;2.87;;
15812;SDS011;8007;51.404;6.304;2022-11-22T08:36:13;6.63;;;2.20;;
15812;SDS011;8007;51.404;6.304;2022-11-22T08:38:15;13.83;;;4.47;;
15812;SDS011;8007;51.404;6.304;2022-11-22T08:40:17;12.30;;;3.10;;
15812;SDS011;8007;51.404;6.304;2022-11-22T08:42:20;17.67;;;6.13;;
15812;SDS011;8007;51.404;6.304;2022-11-22T08:44:23;9.27;;;2.97;;
15812;SDS011;8007;51.404;6.304;2022-11-22T08:46:26;8.33;;;2.90;;
15812;SDS011;8007;51.404;6.304;2022-11-22T08:48:30;13.93;;;3.33;;
15812;SDS011;8007;51.404;6.304;2022-11-22T08:50:33;10.97;;;2.60;;
15812;SDS011;8007;51.404;6.304;2022-11-22T08:52:36;11.03;;;3.30;;
15812;SDS011;8007;51.404;6.304;2022-11-22T08:54:38;10.23;;;2.50;;
15812;SDS011;8007;51.404;6.304;2022-11-22T08:56:41;7.33;;;2.17;;
15812;SDS011;8007;51.404;6.304;2022-11-22T08:58:43;8.90;;;2.60;;
15812;SDS011;8007;51.404;6.304;2022-11-22T09:00:47;7.40;;;2.20;;
15812;SDS011;8007;51.404;6.304;2022-11-22T09:02:49;11.50;;;2.60;;
15812;SDS011;8007;51.404;6.304;2022-11-22T09:04:51;7.83;;;2.07;;
15812;SDS011;8007;51.404;6.304;2022-11-22T09:06:54;7.87;;;2.93;;
15812;SDS011;8007;51.404;6.304;2022-11-22T09:08:56;14.20;;;3.07;;
15812;SDS011;8007;51.404;6.304;2022-11-22T09:10:59;11.67;;;3.80;;
15812;SDS011;8007;51.404;6.304;2022-11-22T09:13:01;6.27;;;2.90;;
15812;SDS011;8007;51.404;6.304;2022-11-22T09:15:04;5.20;;;2.33;;
15812;SDS011;8007;51.404;6.304;2022-11-22T09:17:08;10.37;;;2.67;;
15812;SDS011;8007;51.404;6.304;2022-11-22T09:19:10;10.63;;;2.03;;
15812;SDS011;8007;51.404;6.304;2022-11-22T09:21:14;4.17;;;2.13;;
15812;SDS011;8007;51.404;6.304;2022-11-22T09:23:18;7.80;;;2.23;;
15812;SDS011;8007;51.404;6.304;2022-11-22T09:25:20;8.20;;;1.83;;
15812;SDS011;8007;51.404;6.304;2022-11-22T09:27:23;9.33;;;2.53;;
15812;SDS011;8007;51.404;6.304;2022-11-22T09:29:25;8.57;;;1.70;;
15812;SDS011;8007;51.404;6.304;2022-11-22T09:31:29;3.47;;;1.33;;
15812;SDS011;8007;51.404;6.304;2022-11-22T09:33:34;9.70;;;2.40;;
15812;SDS011;8007;51.404;6.304;2022-11-22T09:35:37;9.20;;;1.50;;
15812;SDS011;8007;51.404;6.304;2022-11-22T09:37:39;3.67;;;1.80;;
15812;SDS011;8007;51.404;6.304;2022-11-22T09:39:42;6.53;;;2.50;;
15812;SDS011;8007;51.404;6.304;2022-11-22T09:41:55;9.17;;;3.00;;
15812;SDS011;8007;51.404;6.304;2022-11-22T09:44:06;4.70;;;1.93;;
15812;SDS011;8007;51.404;6.304;2022-11-22T09:46:17;3.70;;;1.53;;
15812;SDS011;8007;51.404;6.304;2022-11-22T09:48:36;5.50;;;1.60;;
15812;SDS011;8007;51.404;6.304;2022-11-22T09:50:45;3.27;;;1.20;;
15812;SDS011;8007;51.404;6.304;2022-11-22T09:52:54;5.50;;;1.73;;
15812;SDS011;8007;51.404;6.304;2022-11-22T09:55:01;7.77;;;1.40;;
15812;SDS011;8007;51.404;6.304;2022-11-22T09:57:07;5.47;;;1.30;;
15812;SDS011;8007;51.404;6.304;2022-11-22T09:59:16;6.13;;;1.70;;
15812;SDS011;8007;51.404;6.304;2022-11-22T10:01:23;9.07;;;1.50;;
15812;SDS011;8007;51.404;6.304;2022-11-22T10:03:29;6.00;;;1.30;;
15812;SDS011;8007;51.404;6.304;2022-11-22T10:05:45;5.13;;;1.43;;
15812;SDS011;8007;51.404;6.304;2022-11-22T10:07:50;4.03;;;1.50;;
15812;SDS011;8007;51.404;6.304;2022-11-22T10:09:58;5.60;;;1.17;;
15812;SDS011;8007;51.404;6.304;2022-11-22T10:12:05;4.80;;;1.40;;
15812;SDS011;8007;51.404;6.304;2022-11-22T10:14:14;4.43;;;1.20;;
15812;SDS011;8007;51.404;6.304;2022-11-22T10:16:27;7.03;;;1.30;;
15812;SDS011;8007;51.404;6.304;2022-11-22T10:18:35;4.30;;;1.40;;
15812;SDS011;8007;51.404;6.304;2022-11-22T10:20:41;3.67;;;1.30;;
15812;SDS011;8007;51.404;6.304;2022-11-22T10:22:44;14.37;;;2.90;;
15812;SDS011;8007;51.404;6.304;2022-11-22T10:24:47;3.60;;;1.23;;
15812;SDS011;8007;51.404;6.304;2022-11-22T10:26:49;4.03;;;1.73;;
15812;SDS011;8007;51.404;6.304;2022-11-22T10:28:55;6.03;;;1.70;;
15812;SDS011;8007;51.404;6.304;2022-11-22T10:31:10;5.87;;;2.13;;
15812;SDS011;8007;51.404;6.304;2022-11-22T10:33:17;5.67;;;1.70;;
15812;SDS011;8007;51.404;6.304;2022-11-22T10:35:27;7.10;;;1.90;;
15812;SDS011;8007;51.404;6.304;2022-11-22T10:37:42;7.70;;;1.63;;
15812;SDS011;8007;51.404;6.304;2022-11-22T10:39:53;6.13;;;1.60;;
15812;SDS011;8007;51.404;6.304;2022-11-22T10:42:08;3.57;;;1.17;;
15812;SDS011;8007;51.404;6.304;2022-11-22T10:44:23;3.47;;;1.37;;
15812;SDS011;8007;51.404;6.304;2022-11-22T10:46:31;6.97;;;1.47;;
15812;SDS011;8007;51.404;6.304;2022-11-22T10:48:41;4.50;;;1.20;;
15812;SDS011;8007;51.404;6.304;2022-11-22T10:50:53;4.80;;;1.53;;
15812;SDS011;8007;51.404;6.304;2022-11-22T10:53:00;5.13;;;2.10;;
15812;SDS011;8007;51.404;6.304;2022-11-22T10:55:13;5.10;;;1.50;;
15812;SDS011;8007;51.404;6.304;2022-11-22T10:57:24;5.93;;;1.40;;
15812;SDS011;8007;51.404;6.304;2022-11-22T10:59:36;4.23;;;1.40;;
15812;SDS011;8007;51.404;6.304;2022-11-22T11:01:49;2.80;;;1.20;;
15812;SDS011;8007;51.404;6.304;2022-11-22T11:03:58;3.03;;;1.00;;
15812;SDS011;8007;51.404;6.304;2022-11-22T11:06:03;5.43;;;3.20;;
15812;SDS011;8007;51.404;6.304;2022-11-22T11:08:09;4.77;;;1.50;;
15812;SDS011;8007;51.404;6.304;2022-11-22T11:10:14;3.97;;;1.30;;
15812;SDS011;8007;51.404;6.304;2022-11-22T11:12:18;3.27;;;1.30;;
15812;SDS011;8007;51.404;6.304;2022-11-22T11:14:25;3.83;;;1.10;;
15812;SDS011;8007;51.404;6.304;2022-11-22T11:16:30;3.13;;;1.60;;
15812;SDS011;8007;51.404;6.304;2022-11-22T11:18:35;3.90;;;1.10;;
15812;SDS011;8007;51.404;6.304;2022-11-22T11:20:41;3.03;;;1.00;;
15812;SDS011;8007;51.404;6.304;2022-11-22T11:22:46;3.37;;;1.00;;
15812;SDS011;8007;51.404;6.304;2022-11-22T11:24:50;3.27;;;1.23;;
15812;SDS011;8007;51.404;6.304;2022-11-22T11:26:53;2.90;;;1.00;;
15812;SDS011;8007;51.404;6.304;2022-11-22T11:31:40;4.40;;;1.77;;
15812;SDS011;8007;51.404;6.304;2022-11-22T11:33:43;3.77;;;1.50;;
15812;SDS011;8007;51.404;6.304;2022-11-22T11:35:46;3.63;;;1.47;;
15812;SDS011;8007;51.404;6.304;2022-11-22T11:37:48;4.33;;;1.83;;
15812;SDS011;8007;51.404;6.304;2022-11-22T11:39:52;12.00;;;5.10;;
15812;SDS011;8007;51.404;6.304;2022-11-22T11:41:54;4.63;;;3.27;;
15812;SDS011;8007;51.404;6.304;2022-11-22T11:43:58;5.30;;;1.73;;
15812;SDS011;8007;51.404;6.304;2022-11-22T11:46:05;4.67;;;1.40;;
15812;SDS011;8007;51.404;6.304;2022-11-22T11:48:26;3.07;;;1.30;;
15812;SDS011;8007;51.404;6.304;2022-11-22T11:50:29;4.00;;;1.70;;
15812;SDS011;8007;51.404;6.304;2022-11-22T11:52:31;7.33;;;1.77;;
15812;SDS011;8007;51.404;6.304;2022-11-22T11:54:38;3.10;;;1.07;;
15812;SDS011;8007;51.404;6.304;2022-11-22T11:56:44;2.50;;;1.50;;
15812;SDS011;8007;51.404;6.304;2022-11-22T11:58:49;3.63;;;1.40;;
15812;SDS011;8007;51.404;6.304;2022-11-22T12:00:52;1.33;;;0.87;;
15812;SDS011;8007;51.404;6.304;2022-11-22T12:02:55;3.30;;;0.90;;
15812;SDS011;8007;51.404;6.304;2022-11-22T12:04:59;4.90;;;1.27;;
15812;SDS011;8007;51.404;6.304;2022-11-22T12:07:14;3.93;;;1.40;;
15812;SDS011;8007;51.404;6.304;2022-11-22T12:09:25;2.17;;;1.23;;
15812;SDS011;8007;51.404;6.304;2022-11-22T12:11:32;3.87;;;1.13;;
15812;SDS011;8007;51.404;6.304;2022-11-22T12:13:41;2.57;;;0.97;;
15812;SDS011;8007;51.404;6.304;2022-11-22T12:15:47;3.37;;;1.00;;
15812;SDS011;8007;51.404;6.304;2022-11-22T12:17:53;2.97;;;1.27;;
15812;SDS011;8007;51.404;6.304;2022-11-22T12:20:00;1.17;;;1.00;;
15812;SDS011;8007;51.404;6.304;2022-11-22T12:22:08;1.70;;;1.27;;
15812;SDS011;8007;51.404;6.304;2022-11-22T12:24:16;3.37;;;1.20;;
15812;SDS011;8007;51.404;6.304;2022-11-22T12:26:21;2.93;;;1.27;;
15812;SDS011;8007;51.404;6.304;2022-11-22T12:28:24;6.43;;;1.60;;
15812;SDS011;8007;51.404;6.304;2022-11-22T12:30:29;1.67;;;1.07;;
15812;SDS011;8007;51.404;6.304;2022-11-22T12:32:34;4.33;;;1.17;;
15812;SDS011;8007;51.404;6.304;2022-11-22T12:34:44;3.63;;;1.93;;
15812;SDS011;8007;51.404;6.304;2022-11-22T12:36:51;4.80;;;1.50;;